Time;durP1;ratioP1;P1;durP2;ratioP2;P2;SDS_P1;SDS_P2;PMS_P1;PMS_P2;Temp;Humidity;BMP_temperature;BMP_pressure;BME280_temperature;BME280_humidity;BME280_pressure;Samples;Min_cycle;Max_cycle;Signal;HPM_P1;HPM_P2
2022/01/30 00:00:13;;;;;;;1999.90;999.90;;;;;;;3.03;100.00;163203.97;5021664;28;20048;-68
2022/01/30 00:02:40;;;;;;;1999.90;999.90;;;;;;;3.05;100.00;163209.44;5022795;28;20496;-68
2022/01/30 00:05:07;;;;;;;1999.90;999.90;;;;;;;3.25;100.00;163262.91;5021721;28;20397;-68
2022/01/30 00:07:34;;;;;;;1999.90;999.90;;;;;;;3.25;100.00;163262.91;5023430;28;20498;-68
2022/01/30 00:10:01;;;;;;;1999.90;999.90;;;;;;;3.14;100.00;163235.50;5027947;28;20041;-68
2022/01/30 00:12:40;;;;;;;1999.90;999.90;;;;;;;3.05;100.00;163210.84;5014810;28;20050;-68
2022/01/30 00:15:07;;;;;;;1999.90;999.90;;;;;;;3.23;100.00;163258.78;5018711;28;20410;-68
2022/01/30 00:17:40;;;;;;;1999.90;999.90;;;;;;;3.18;100.00;163246.41;5014712;28;20099;-67
2022/01/30 00:20:12;;;;;;;1999.90;999.90;;;;;;;3.20;100.00;163250.56;5013169;28;20394;-66
2022/01/30 00:22:47;;;;;;;1999.90;999.90;;;;;;;3.25;100.00;163262.91;5020638;28;20199;-68
2022/01/30 00:25:18;;;;;;;1999.90;999.90;;;;;;;3.27;100.00;163268.38;5024434;28;20104;-66
2022/01/30 00:27:48;;;;;;;1999.90;999.90;;;;;;;3.23;100.00;163258.78;5021502;28;20057;-68
2022/01/30 00:30:16;;;;;;;1999.90;999.90;;;;;;;3.20;100.00;163249.16;5017029;28;20053;-68
2022/01/30 00:32:43;;;;;;;1999.90;999.90;;;;;;;3.11;100.00;163227.28;5030291;28;20314;-68
2022/01/30 00:35:30;;;;;;;1999.90;999.90;;;;;;;3.12;100.00;163229.97;5021081;28;20136;-68
2022/01/30 00:37:56;;;;;;;1999.90;999.90;;;;;;;3.34;100.00;163287.56;5015746;28;20078;-67
2022/01/30 00:40:38;;;;;;;;;;;;;;;3.51;100.00;163334.16;5018029;28;20073;-67
2022/01/30 00:43:05;;;;;;;1999.90;999.90;;;;;;;3.44;100.00;163313.56;5010988;28;20318;-68
2022/01/30 00:45:33;;;;;;;1999.90;999.90;;;;;;;3.46;100.00;163320.44;5024114;28;20468;-68
2022/01/30 00:47:59;;;;;;;1999.90;999.90;;;;;;;3.40;100.00;163304.00;5022007;28;20052;-67
2022/01/30 00:50:26;;;;;;;1999.90;999.90;;;;;;;3.49;100.00;163328.66;5018091;28;20107;-66
2022/01/30 00:52:55;;;;;;;1999.90;999.90;;;;;;;3.58;100.00;163350.59;5018695;28;20049;-66
2022/01/30 00:55:26;;;;;;;1999.90;999.90;;;;;;;3.65;100.00;163371.16;5022040;28;20049;-68
2022/01/30 00:57:54;;;;;;;1999.90;999.90;;;;;;;3.69;100.00;163380.72;5013404;28;20042;-68
2022/01/30 01:00:22;;;;;;;1999.90;999.90;;;;;;;3.75;100.00;163397.22;5020151;28;20362;-67
2022/01/30 01:02:49;;;;;;;1999.90;999.90;;;;;;;3.86;100.00;163426.00;5017914;28;20053;-67
2022/01/30 01:05:16;;;;;;;1999.90;999.90;;;;;;;3.82;100.00;163416.38;5022985;28;20049;-67
2022/01/30 01:07:48;;;;;;;1999.90;999.90;;;;;;;4.20;100.00;163517.84;5014647;28;20053;-67
2022/01/30 01:11:25;;;;;;;1999.90;999.90;;;;;;;4.33;100.00;163550.75;5018310;28;20037;-67
2022/01/30 01:23:53;;;;;;;1999.90;999.90;;;;;;;5.16;97.65;163771.63;5024206;28;20069;-67
2022/01/30 01:26:22;;;;;;;1999.90;999.90;;;;;;;5.35;95.96;163822.44;5021079;28;20443;-66
2022/01/30 01:28:49;;;;;;;1999.90;999.90;;;;;;;5.62;94.76;163895.16;5025191;28;20049;-67
2022/01/30 01:31:15;;;;;;;1999.90;999.90;;;;;;;5.47;94.90;163856.69;5020361;28;20049;-67
2022/01/30 01:36:28;;;;;;;1999.90;999.90;;;;;;;5.61;94.79;163893.78;5017096;28;20394;-67
2022/01/30 01:38:54;;;;;;;1999.90;999.90;;;;;;;5.49;95.37;163860.81;5022805;28;20054;-67
2022/01/30 01:41:23;;;;;;;1999.90;999.90;;;;;;;5.48;93.16;163858.09;5015677;28;20050;-67
2022/01/30 01:43:50;;;;;;;1999.90;999.90;;;;;;;5.55;93.45;163875.94;5025694;28;20053;-67
2022/01/30 01:46:23;;;;;;;1999.90;999.90;;;;;;;5.63;94.00;163899.28;5019076;28;20053;-67
2022/01/30 01:48:52;;;;;;;1999.90;999.90;;;;;;;5.55;93.05;163877.34;5017408;28;20144;-67
2022/01/30 01:51:24;;;;;;;1999.90;999.90;;;;;;;5.47;92.68;163855.34;5029000;28;20342;-67
2022/01/30 01:53:56;;;;;;;1999.90;999.90;;;;;;;5.63;92.31;163897.91;5024257;28;20083;-68
2022/01/30 01:56:23;;;;;;;1999.90;999.90;;;;;;;5.45;92.31;163851.22;5025989;28;20121;-64
2022/01/30 01:58:51;;;;;;;1999.90;999.90;;;;;;;5.67;91.85;163907.50;5029484;28;20111;-68
2022/01/30 02:01:17;;;;;;;1999.90;999.90;;;;;;;5.52;92.52;163867.69;5022108;28;20053;-68
2022/01/30 02:03:44;;;;;;;1999.90;999.90;;;;;;;5.53;91.72;163871.81;5014989;28;20342;-68
2022/01/30 02:06:15;;;;;;;1999.90;999.90;;;;;;;5.27;91.70;163803.19;5022029;28;20139;-68
2022/01/30 02:08:46;;;;;;;1999.90;999.90;;;;;;;5.38;90.17;163832.00;5022963;28;20076;-68
2022/01/30 02:11:17;;;;;;;1999.90;999.90;;;;;;;5.63;88.92;163897.91;5024772;28;20087;-68
2022/01/30 02:27:45;;;;;;;1999.90;999.90;;;;;;;5.35;88.89;163822.44;5028134;28;20053;-65
2022/01/30 02:30:16;;;;;;;1999.90;999.90;;;;;;;5.65;88.31;163903.38;5018779;28;20096;-65
2022/01/30 02:32:43;;;;;;;;;;;;;;;5.52;88.59;163869.06;5015600;28;20056;-65
2022/01/30 02:35:10;;;;;;;1999.90;999.90;;;;;;;5.21;88.86;163786.75;5019770;28;19980;-65
2022/01/30 02:37:36;;;;;;;1999.90;999.90;;;;;;;5.92;87.25;163976.13;5020974;28;20154;-66
2022/01/30 02:40:07;;;;;;;1999.90;999.90;;;;;;;5.90;86.48;163970.66;5020929;28;20041;-66
2022/01/30 02:42:37;;;;;;;1999.90;999.90;;;;;;;5.40;88.39;163836.13;5030326;28;20129;-66
2022/01/30 02:45:08;;;;;;;1999.90;999.90;;;;;;;5.24;88.84;163794.97;5015955;28;20100;-66
2022/01/30 02:52:40;;;;;;;1999.90;999.90;;;;;;;5.49;88.10;163860.81;5024310;28;20112;-66
2022/01/30 02:55:08;;;;;;;1999.90;999.90;;;;;;;5.83;87.46;163951.44;5016452;28;20057;-65
2022/01/30 02:57:34;;;;;;;1999.90;999.90;;;;;;;5.63;87.65;163899.28;5024048;28;20103;-66
2022/01/30 03:00:02;;;;;;;1999.90;999.90;;;;;;;5.57;87.93;163882.81;5022239;28;20049;-65
2022/01/30 03:02:29;;;;;;;1999.90;999.90;;;;;;;5.40;89.21;163836.13;5015214;28;20049;-65
2022/01/30 03:04:55;;;;;;;1999.90;999.90;;;;;;;5.60;88.24;163889.69;5023410;28;20041;-65
2022/01/30 03:07:22;;;;;;;1999.90;999.90;;;;;;;5.66;87.73;163906.16;5016592;28;20058;-65
2022/01/30 03:09:48;;;;;;;1999.90;999.90;;;;;;;5.68;87.65;163910.25;5022180;28;20042;-65
2022/01/30 03:12:15;;;;;;;1999.90;999.90;;;;;;;5.51;88.78;163866.34;5017989;28;20085;-65
2022/01/30 03:14:42;;;;;;;1999.90;999.90;;;;;;;5.53;88.82;163871.81;5026075;28;20045;-65
2022/01/30 03:17:09;;;;;;;1999.90;999.90;;;;;;;5.45;88.11;163849.88;5019339;28;20426;-66
2022/01/30 03:19:35;;;;;;;1999.90;999.90;;;;;;;5.57;88.36;163881.44;5018041;28;20112;-65
2022/01/30 03:22:02;;;;;;;1999.90;999.90;;;;;;;5.53;88.37;163870.47;5018220;28;20053;-65
2022/01/30 03:24:36;;;;;;;1999.90;999.90;;;;;;;5.50;87.96;163863.56;5022374;28;20080;-65
2022/01/30 03:27:04;;;;;;;1999.90;999.90;;;;;;;5.52;87.94;163869.06;5021445;28;20053;-66
2022/01/30 03:29:32;;;;;;;1999.90;999.90;;;;;;;4.96;89.56;163718.09;5019951;28;20050;-65
2022/01/30 03:31:59;;;;;;;1999.90;999.90;;;;;;;4.96;89.19;163719.50;5021160;28;20072;-66
2022/01/30 03:34:25;;;;;;;1999.90;999.90;;;;;;;5.00;87.57;163729.09;5027987;28;20054;-66
2022/01/30 03:36:52;;;;;;;1999.90;999.90;;;;;;;5.16;87.18;163771.63;5015309;28;20081;-66
2022/01/30 03:39:19;;;;;;;1999.90;999.90;;;;;;;5.13;85.59;163764.75;5022684;28;20137;-65
2022/01/30 03:41:45;;;;;;;1999.90;999.90;;;;;;;5.31;84.75;163811.44;5023900;28;20107;-66
2022/01/30 03:44:12;;;;;;;1999.90;999.90;;;;;;;5.43;84.38;163844.34;5028200;28;20115;-67
2022/01/30 03:46:38;;;;;;;1999.90;999.90;;;;;;;5.38;83.89;163830.66;5016373;28;20431;-67
2022/01/30 03:49:21;;;;;;;1999.90;999.90;;;;;;;5.51;83.40;163866.34;5023146;28;20056;-66
2022/01/30 03:51:47;;;;;;;1999.90;999.90;;;;;;;5.41;82.75;163838.88;5022166;28;20434;-66
2022/01/30 03:54:14;;;;;;;1999.90;999.90;;;;;;;5.58;81.76;163885.56;5024008;28;20382;-67
2022/01/30 03:56:40;;;;;;;1999.90;999.90;;;;;;;5.74;81.23;163926.72;5022470;28;20045;-67
2022/01/30 03:59:07;;;;;;;1999.90;999.90;;;;;;;5.65;80.90;163904.75;5021085;28;20449;-67
2022/01/30 04:01:34;;;;;;;1999.90;999.90;;;;;;;5.74;80.32;163926.72;5014502;28;20123;-67
2022/01/30 04:04:01;;;;;;;1999.90;999.90;;;;;;;5.50;81.02;163863.56;5015903;28;20052;-66
2022/01/30 04:06:28;;;;;;;1999.90;999.90;;;;;;;5.43;81.63;163844.34;5025249;28;20080;-67
2022/01/30 04:08:55;;;;;;;1999.90;999.90;;;;;;;5.42;82.31;163841.66;5015893;28;20379;-67
2022/01/30 04:11:22;;;;;;;1999.90;999.90;;;;;;;5.36;82.50;163825.13;5015784;28;20049;-66
2022/01/30 04:13:49;;;;;;;1999.90;999.90;;;;;;;5.36;81.75;163825.13;5020718;28;20058;-66
2022/01/30 04:16:16;;;;;;;1999.90;999.90;;;;;;;5.42;82.14;163841.66;5023347;28;20103;-67
2022/01/30 04:18:42;;;;;;;1999.90;999.90;;;;;;;5.06;81.73;163745.53;5018145;28;20064;-67
2022/01/30 04:21:09;;;;;;;1999.90;999.90;;;;;;;5.19;81.61;163781.22;5016192;28;20096;-67
2022/01/30 04:23:35;;;;;;;1999.90;999.90;;;;;;;5.23;81.37;163792.22;5017197;28;20442;-67
2022/01/30 04:26:02;;;;;;;1999.90;999.90;;;;;;;5.09;81.21;163753.78;5021419;28;20057;-67
2022/01/30 04:28:29;;;;;;;1999.90;999.90;;;;;;;4.71;82.25;163653.63;5016268;28;20076;-66
2022/01/30 04:30:55;;;;;;;1999.90;999.90;;;;;;;4.86;82.29;163693.41;5021811;28;20045;-66
2022/01/30 04:33:22;;;;;;;1999.90;999.90;;;;;;;4.81;82.74;163679.72;5023403;28;20049;-67
2022/01/30 04:35:49;;;;;;;1999.90;999.90;;;;;;;4.79;82.95;163674.19;5014977;28;20045;-67
2022/01/30 04:38:33;;;;;;;1999.90;999.90;;;;;;;4.55;83.83;163611.09;5013826;28;20050;-67
2022/01/30 04:52:26;;;;;;;1999.90;999.90;;;;;;;4.89;82.71;163701.63;5016369;28;20074;-67
2022/01/30 05:00:21;;;;;;;1999.90;999.90;;;;;;;4.89;82.31;163700.28;5015731;28;20047;-67
2022/01/30 05:03:04;;;;;;;1999.90;999.90;;;;;;;4.69;83.45;163646.75;5019224;28;20050;-67
2022/01/30 05:08:07;;;;;;;1999.90;999.90;;;;;;;4.99;84.41;163726.31;5012645;28;20111;-67
2022/01/30 05:10:34;;;;;;;1999.90;999.90;;;;;;;4.91;85.20;163705.75;5021736;28;20107;-67
2022/01/30 05:13:03;;;;;;;1999.90;999.90;;;;;;;4.70;85.83;163649.50;5017226;28;20049;-67
2022/01/30 05:15:30;;;;;;;1999.90;999.90;;;;;;;4.56;85.48;163613.84;5017659;28;20408;-67
2022/01/30 05:17:57;;;;;;;1999.90;999.90;;;;;;;4.63;84.90;163631.72;5016424;28;20413;-67
2022/01/30 05:20:24;;;;;;;1999.90;999.90;;;;;;;4.56;84.27;163613.84;5013269;28;20096;-67
2022/01/30 05:22:51;;;;;;;1999.90;999.90;;;;;;;4.77;83.42;163668.72;5024864;28;20167;-67
2022/01/30 05:25:18;;;;;;;1999.90;999.90;;;;;;;4.66;83.49;163638.53;5020164;28;20405;-67
2022/01/30 05:27:44;;;;;;;1999.90;999.90;;;;;;;4.86;82.80;163692.06;5016318;28;20411;-67
2022/01/30 05:30:12;;;;;;;1999.90;999.90;;;;;;;4.77;82.03;163668.72;5028127;28;20811;-67
2022/01/30 05:32:38;;;;;;;1999.90;999.90;;;;;;;4.87;81.02;163696.19;5020744;28;20104;-67
2022/01/30 05:35:06;;;;;;;1999.90;999.90;;;;;;;5.04;80.35;163740.06;5020279;28;20430;-67
2022/01/30 05:37:32;;;;;;;1999.90;999.90;;;;;;;4.88;80.28;163697.53;5011473;28;20386;-67
2022/01/30 05:39:59;;;;;;;1999.90;999.90;;;;;;;4.67;80.86;163641.28;5024651;28;20049;-67
2022/01/30 05:42:28;;;;;;;1999.90;999.90;;;;;;;4.60;81.56;163623.47;5021901;28;20076;-67
2022/01/30 05:47:27;;;;;;;1999.90;999.90;;;;;;;4.61;82.59;163624.84;5013260;28;20104;-67
2022/01/30 05:49:54;;;;;;;1999.90;999.90;;;;;;;4.46;84.26;163586.41;5017047;28;20041;-67
2022/01/30 05:52:22;;;;;;;1999.90;999.90;;;;;;;4.35;85.48;163556.28;5021041;28;20144;-67
2022/01/30 05:54:48;;;;;;;1999.90;999.90;;;;;;;4.44;85.60;163579.53;5020702;28;20049;-67
2022/01/30 05:57:15;;;;;;;1999.90;999.90;;;;;;;4.20;84.55;163516.50;5021159;28;20383;-67
2022/01/30 05:59:41;;;;;;;1999.90;999.90;;;;;;;4.23;85.59;163524.72;5024719;28;20536;-67
2022/01/30 06:02:08;;;;;;;1999.90;999.90;;;;;;;4.21;85.52;163520.63;5028166;28;20042;-67
2022/01/30 06:04:35;;;;;;;1999.90;999.90;;;;;;;4.28;85.52;163538.41;5023091;28;20052;-67
2022/01/30 06:07:02;;;;;;;1999.90;999.90;;;;;;;4.07;86.76;163480.84;5022804;28;20092;-67
2022/01/30 06:09:28;;;;;;;1999.90;999.90;;;;;;;3.81;88.28;163412.25;5028906;28;20057;-67
2022/01/30 06:11:55;;;;;;;1999.90;999.90;;;;;;;3.86;87.94;163427.34;5023006;28;20430;-67
2022/01/30 06:14:22;;;;;;;1999.90;999.90;;;;;;;3.71;88.43;163386.25;5025246;28;20050;-67
2022/01/30 06:16:49;;;;;;;1999.90;999.90;;;;;;;3.78;89.15;163404.03;5021287;28;20115;-67
2022/01/30 06:19:19;;;;;;;1999.90;999.90;;;;;;;3.60;90.19;163356.06;5023945;28;20084;-67
2022/01/30 06:21:46;;;;;;;1999.90;999.90;;;;;;;3.56;89.65;163345.09;5016025;28;20049;-67
2022/01/30 06:24:12;;;;;;;1999.90;999.90;;;;;;;3.64;89.27;163367.03;5028486;28;20049;-67
2022/01/30 06:26:39;;;;;;;1999.90;999.90;;;;;;;3.77;88.23;163402.69;5024065;28;20049;-67
2022/01/30 06:29:05;;;;;;;1999.90;999.90;;;;;;;3.72;87.90;163388.97;5030358;28;20050;-67
2022/01/30 06:31:32;;;;;;;1999.90;999.90;;;;;;;3.76;87.38;163399.94;5015168;28;20046;-67
2022/01/30 06:33:59;;;;;;;1999.90;999.90;;;;;;;3.65;86.54;163369.81;5019001;28;20046;-67
2022/01/30 06:36:25;;;;;;;1999.90;999.90;;;;;;;3.77;86.40;163401.34;5016331;28;20041;-67
2022/01/30 06:38:53;;;;;;;1999.90;999.90;;;;;;;3.76;85.39;163398.59;5024954;28;20146;-67
2022/01/30 06:41:20;;;;;;;1999.90;999.90;;;;;;;3.82;85.35;163415.03;5018153;28;20104;-67
2022/01/30 06:43:46;;;;;;;1999.90;999.90;;;;;;;3.80;84.46;163410.91;5019434;28;20496;-67
2022/01/30 06:46:15;;;;;;;1999.90;999.90;;;;;;;3.95;83.42;163449.31;5025311;28;20060;-67
2022/01/30 06:48:42;;;;;;;1999.90;999.90;;;;;;;3.85;83.82;163424.59;5016881;28;20046;-67
2022/01/30 06:51:08;;;;;;;1999.90;999.90;;;;;;;3.85;83.63;163424.59;5024004;28;20099;-67
2022/01/30 06:53:35;;;;;;;1999.90;999.90;;;;;;;3.98;83.45;163457.53;5030840;28;20308;-67
2022/01/30 06:56:01;;;;;;;1999.90;999.90;;;;;;;3.93;83.35;163443.81;5021150;28;20111;-67
2022/01/30 06:58:28;;;;;;;1999.90;999.90;;;;;;;4.13;82.85;163498.66;5023772;28;20516;-67
2022/01/30 07:00:54;;;;;;;1999.90;999.90;;;;;;;4.01;83.04;163465.75;5023743;28;20046;-67
2022/01/30 07:03:21;;;;;;;1999.90;999.90;;;;;;;3.94;83.53;163447.91;5016885;28;20054;-67
2022/01/30 07:05:48;;;;;;;1999.90;999.90;;;;;;;3.90;82.45;163435.56;5046651;28;20327;-67
2022/01/30 07:08:14;;;;;;;1999.90;999.90;;;;;;;3.95;83.18;163449.31;5028572;28;20103;-67
2022/01/30 07:10:41;;;;;;;1999.90;999.90;;;;;;;3.76;84.12;163399.94;5026185;28;20095;-67
2022/01/30 07:13:08;;;;;;;1999.90;999.90;;;;;;;3.77;84.57;163402.69;5021214;28;20049;-67
2022/01/30 07:15:35;;;;;;;1999.90;999.90;;;;;;;4.00;84.11;163463.00;5025052;28;20061;-67
2022/01/30 07:18:01;;;;;;;1999.90;999.90;;;;;;;3.97;84.42;163454.78;5025093;28;20053;-67
2022/01/30 07:20:28;;;;;;;1999.90;999.90;;;;;;;3.98;84.41;163457.53;5021900;28;20053;-67
2022/01/30 07:22:54;;;;;;;1999.90;999.90;;;;;;;4.21;83.58;163519.22;5029487;28;20045;-67
2022/01/30 07:25:21;;;;;;;1999.90;999.90;;;;;;;4.23;83.94;163526.09;5024085;28;20095;-67
2022/01/30 07:27:47;;;;;;;1999.90;999.90;;;;;;;3.98;84.12;163458.91;5021085;28;20138;-67
2022/01/30 07:30:14;;;;;;;1999.90;999.90;;;;;;;3.85;84.02;163424.59;5012654;28;20107;-67
2022/01/30 07:32:40;;;;;;;1999.90;999.90;;;;;;;3.95;83.32;163450.66;5016583;28;20074;-67
2022/01/30 07:35:07;;;;;;;1999.90;999.90;;;;;;;4.11;82.23;163493.19;5016811;28;20053;-67
2022/01/30 07:37:35;;;;;;;1999.90;999.90;;;;;;;4.11;82.26;163493.19;5016012;28;20041;-67
2022/01/30 07:40:03;;;;;;;1999.90;999.90;;;;;;;4.38;80.27;163565.84;5028767;28;20064;-67
2022/01/30 07:42:29;;;;;;;1999.90;999.90;;;;;;;4.40;79.76;163571.31;5020771;28;20096;-66
2022/01/30 07:44:56;;;;;;;1999.90;999.90;;;;;;;4.44;79.00;163580.94;5015335;28;20041;-67
2022/01/30 07:47:23;;;;;;;1999.90;999.90;;;;;;;4.45;77.91;163582.31;5017070;28;20422;-67
2022/01/30 07:49:51;;;;;;;1999.90;999.90;;;;;;;4.49;78.36;163593.28;5018706;28;20050;-68
2022/01/30 07:52:20;;;;;;;1999.90;999.90;;;;;;;4.65;77.54;163635.81;5021505;28;20145;-67
2022/01/30 07:54:46;;;;;;;1999.90;999.90;;;;;;;4.66;77.52;163638.53;5022423;28;20419;-68
2022/01/30 07:57:14;;;;;;;1999.90;999.90;;;;;;;4.51;77.62;163600.16;5019319;28;20077;-67
2022/01/30 07:59:41;;;;;;;1999.90;999.90;;;;;;;4.53;77.23;163605.63;5017891;28;20050;-68
2022/01/30 08:02:08;;;;;;;1999.90;999.90;;;;;;;4.66;77.85;163638.53;5026835;28;20099;-68
2022/01/30 08:04:35;;;;;;;1999.90;999.90;;;;;;;4.51;76.97;163600.16;5022992;28;20133;-67
2022/01/30 08:07:01;;;;;;;1999.90;999.90;;;;;;;4.66;77.16;163639.94;5023782;28;20045;-68
2022/01/30 08:09:28;;;;;;;1999.90;999.90;;;;;;;4.71;77.20;163652.28;5027783;28;20394;-68
2022/01/30 08:11:55;;;;;;;1999.90;999.90;;;;;;;4.63;76.83;163631.72;5016340;28;20069;-68
2022/01/30 08:14:22;;;;;;;1999.90;999.90;;;;;;;4.71;77.14;163653.63;5018710;28;20046;-68
2022/01/30 08:16:49;;;;;;;1999.90;999.90;;;;;;;4.62;76.66;163627.59;5017878;28;20080;-68
2022/01/30 08:19:16;;;;;;;1999.90;999.90;;;;;;;4.75;76.92;163663.25;5014437;28;20092;-68
2022/01/30 08:21:42;;;;;;;1999.90;999.90;;;;;;;4.73;76.89;163659.16;5019909;28;20547;-67
2022/01/30 08:24:09;;;;;;;1999.90;999.90;;;;;;;4.74;77.02;163660.50;5027088;28;20310;-68
2022/01/30 08:26:35;;;;;;;1999.90;999.90;;;;;;;4.81;77.88;163678.31;5019334;28;20108;-68
2022/01/30 08:29:02;;;;;;;1999.90;999.90;;;;;;;4.87;76.12;163694.81;5016547;28;20516;-68
2022/01/30 08:31:28;;;;;;;1999.90;999.90;;;;;;;5.00;76.75;163729.09;5014642;28;20086;-68
2022/01/30 08:33:55;;;;;;;1999.90;999.90;;;;;;;4.69;79.02;163646.75;5022247;28;20064;-68
2022/01/30 08:36:22;;;;;;;1999.90;999.90;;;;;;;4.65;79.81;163635.81;5023009;28;20045;-68
2022/01/30 08:38:48;;;;;;;1999.90;999.90;;;;;;;4.59;81.19;163622.06;5026026;28;20111;-68
2022/01/30 08:41:14;;;;;;;1999.90;999.90;;;;;;;4.55;81.37;163611.09;5013799;28;20116;-68
2022/01/30 08:43:41;;;;;;;1999.90;999.90;;;;;;;4.60;81.72;163623.47;5011562;28;20131;-68
2022/01/30 08:46:07;;;;;;;1999.90;999.90;;;;;;;4.17;84.80;163509.63;5028170;28;20091;-68
2022/01/30 08:48:34;;;;;;;1999.90;999.90;;;;;;;4.00;86.87;163464.34;5015053;28;20046;-68
2022/01/30 08:51:01;;;;;;;1999.90;999.90;;;;;;;4.13;87.69;163498.66;5052339;28;20068;-68
2022/01/30 08:53:27;;;;;;;1999.90;999.90;;;;;;;3.98;89.38;163457.53;5022779;28;20054;-68
2022/01/30 08:55:54;;;;;;;1999.90;999.90;;;;;;;4.16;90.13;163505.53;5015916;28;20057;-68
2022/01/30 08:58:20;;;;;;;1999.90;999.90;;;;;;;3.94;90.21;163446.56;5023658;28;20092;-68
2022/01/30 09:00:47;;;;;;;1999.90;999.90;;;;;;;3.70;90.62;163384.84;5017810;28;20062;-67
2022/01/30 09:03:13;;;;;;;1999.90;999.90;;;;;;;3.78;89.40;163404.03;5022045;28;20502;-68
2022/01/30 09:05:40;;;;;;;1999.90;999.90;;;;;;;3.97;88.11;163454.78;5017772;28;20055;-69
2022/01/30 09:08:07;;;;;;;1999.90;999.90;;;;;;;4.08;86.72;163483.56;5012717;28;20049;-68
2022/01/30 09:10:36;;;;;;;1999.90;999.90;;;;;;;4.10;86.01;163490.44;5013479;28;20057;-68
2022/01/30 09:13:03;;;;;;;1999.90;999.90;;;;;;;4.03;86.32;163472.63;5020862;28;20038;-69
2022/01/30 09:15:37;;;;;;;1999.90;999.90;;;;;;;4.11;86.32;163493.19;5026288;28;20103;-67
2022/01/30 09:18:08;;;;;;;1999.90;999.90;;;;;;;3.96;87.10;163453.44;5024826;28;20045;-68
2022/01/30 09:20:41;;;;;;;1999.90;999.90;;;;;;;4.03;86.94;163471.22;5022697;28;20050;-69
2022/01/30 09:23:10;;;;;;;1999.90;999.90;;;;;;;3.99;87.41;163460.25;5027579;28;20057;-68
2022/01/30 09:25:42;;;;;;;1999.90;999.90;;;;;;;3.98;88.05;163458.91;5019732;28;20061;-68
2022/01/30 09:28:08;;;;;;;1999.90;999.90;;;;;;;3.93;87.88;163443.81;5020061;28;20079;-68
2022/01/30 09:30:35;;;;;;;1999.90;999.90;;;;;;;4.22;87.49;163523.31;5009386;28;20053;-68
2022/01/30 09:33:02;;;;;;;1999.90;999.90;;;;;;;4.05;87.14;163476.75;5026144;28;20276;-68
2022/01/30 09:35:28;;;;;;;1999.90;999.90;;;;;;;4.08;87.59;163484.97;5022456;28;20045;-68
2022/01/30 09:37:55;;;;;;;1999.90;999.90;;;;;;;4.04;86.97;163475.34;5021360;28;20095;-68
2022/01/30 09:40:21;;;;;;;1999.90;999.90;;;;;;;4.38;85.68;163564.50;5027565;28;20049;-68
2022/01/30 09:42:49;;;;;;;1999.90;999.90;;;;;;;4.11;87.40;163493.19;5025895;28;20081;-68
2022/01/30 09:45:18;;;;;;;1999.90;999.90;;;;;;;4.34;86.94;163553.53;5023898;28;20199;-68
2022/01/30 09:47:46;;;;;;;1999.90;999.90;;;;;;;4.25;87.50;163528.84;5028268;28;20244;-68
2022/01/30 09:50:12;;;;;;;1999.90;999.90;;;;;;;3.99;89.38;163460.25;5024408;28;20103;-69
2022/01/30 09:52:39;;;;;;;1999.90;999.90;;;;;;;4.05;89.17;163478.09;5016725;28;20049;-68
2022/01/30 09:55:08;;;;;;;1999.90;999.90;;;;;;;3.98;89.91;163457.53;5027912;28;20100;-68
2022/01/30 09:57:36;;;;;;;1999.90;999.90;;;;;;;4.15;89.23;163504.13;5022386;28;20434;-67
2022/01/30 10:00:05;;;;;;;1999.90;999.90;;;;;;;3.99;89.51;163460.25;5023006;28;20049;-67
2022/01/30 10:02:31;;;;;;;1999.90;999.90;;;;;;;3.92;89.17;163442.44;5020221;28;20128;-67
2022/01/30 10:04:58;;;;;;;1999.90;999.90;;;;;;;3.98;88.95;163457.53;5021660;28;20046;-67
2022/01/30 10:07:39;;;;;;;1999.90;999.90;;;;;;;4.09;88.62;163486.31;5020623;28;20102;-67
2022/01/30 10:10:11;;;;;;;1999.90;999.90;;;;;;;4.10;87.98;163490.44;5025884;28;20045;-67
2022/01/30 10:12:59;;;;;;;1999.90;999.90;;;;;;;4.22;87.91;163523.31;5017267;28;20042;-67
2022/01/30 10:15:26;;;;;;;1999.90;999.90;;;;;;;4.34;87.33;163553.53;5023399;28;20103;-67
2022/01/30 10:17:53;;;;;;;1999.90;999.90;;;;;;;4.27;86.84;163534.31;5027383;28;20054;-67
2022/01/30 10:20:37;;;;;;;1999.90;999.90;;;;;;;4.20;86.59;163517.84;5019937;28;20053;-67
2022/01/30 10:23:08;;;;;;;1999.90;999.90;;;;;;;4.37;85.07;163561.75;5019429;28;20069;-67
2022/01/30 10:25:56;;;;;;;1999.90;999.90;;;;;;;4.32;85.47;163548.06;5018877;28;20111;-67
2022/01/30 10:28:31;;;;;;;1999.90;999.90;;;;;;;4.37;84.84;163563.09;5021809;28;20076;-68
2022/01/30 10:31:01;;;;;;;1999.90;999.90;;;;;;;4.34;84.64;163553.53;5027341;28;20057;-67
2022/01/30 10:33:40;;;;;;;1999.90;999.90;;;;;;;4.49;83.89;163593.28;5023611;28;20350;-67
2022/01/30 10:36:08;;;;;;;1999.90;999.90;;;;;;;4.52;83.60;163602.88;5027531;28;20442;-67
2022/01/30 10:38:46;;;;;;;1999.90;999.90;;;;;;;4.44;81.10;163580.94;5028472;28;20054;-67
2022/01/30 10:41:18;;;;;;;1999.90;999.90;;;;;;;4.46;81.57;163586.41;5026193;28;20053;-67
2022/01/30 10:43:57;;;;;;;1999.90;999.90;;;;;;;4.62;81.30;163627.59;5025462;28;20066;-67
2022/01/30 10:46:29;;;;;;;1999.90;999.90;;;;;;;4.50;81.10;163597.41;5019698;28;20049;-67
2022/01/30 10:48:57;;;;;;;1999.90;999.90;;;;;;;4.53;81.12;163605.63;5025214;28;20762;-67
2022/01/30 10:51:28;;;;;;;1999.90;999.90;;;;;;;4.50;80.96;163596.03;5023860;28;20041;-67
2022/01/30 10:54:05;;;;;;;1999.90;999.90;;;;;;;4.60;80.91;163623.47;5022534;28;20042;-68
2022/01/30 10:56:32;;;;;;;1999.90;999.90;;;;;;;4.61;80.30;163624.84;5020224;28;20054;-67
2022/01/30 10:59:20;;;;;;;1999.90;999.90;;;;;;;4.78;80.37;163671.50;5021837;28;20053;-68
2022/01/30 11:01:49;;;;;;;1999.90;999.90;;;;;;;4.83;79.64;163685.19;5015675;28;20049;-68
2022/01/30 11:04:30;;;;;;;1999.90;999.90;;;;;;;4.82;79.75;163682.44;5034485;28;20354;-68
2022/01/30 11:07:01;;;;;;;1999.90;999.90;;;;;;;4.77;79.96;163668.72;5017606;28;20064;-67
2022/01/30 11:12:08;;;;;;;1999.90;999.90;;;;;;;5.05;78.87;163742.84;5020314;28;20061;-67
2022/01/30 11:15:05;;;;;;;1999.90;999.90;;;;;;;4.63;79.12;163631.72;5018059;28;20069;-67
2022/01/30 11:17:27;;;;;;;1999.90;999.90;;;;;;;4.80;79.45;163675.59;5019504;28;20049;-68
2022/01/30 11:19:57;;;;;;;1999.90;999.90;;;;;;;4.91;79.51;163705.75;5018667;28;20454;-68
2022/01/30 11:22:27;;;;;;;1999.90;999.90;;;;;;;4.86;79.24;163692.06;5014481;28;20042;-67
2022/01/30 11:25:06;;;;;;;1999.90;999.90;;;;;;;4.70;80.52;163650.88;5015439;28;20049;-68
2022/01/30 11:27:34;;;;;;;1999.90;999.90;;;;;;;4.83;80.17;163685.19;5014785;28;20054;-68
2022/01/30 11:30:03;;;;;;;1999.90;999.90;;;;;;;4.84;79.07;163687.94;5011952;28;20088;-69
2022/01/30 11:32:30;;;;;;;1999.90;999.90;;;;;;;4.79;79.57;163672.84;5024619;28;20108;-67
2022/01/30 11:34:57;;;;;;;1999.90;999.90;;;;;;;4.85;78.79;163689.31;5022800;28;20056;-69
2022/01/30 11:37:27;;;;;;;1999.90;999.90;;;;;;;4.70;77.93;163650.88;5022604;28;20494;-69
2022/01/30 11:39:54;;;;;;;1999.90;999.90;;;;;;;4.78;77.97;163671.50;5027490;28;20049;-68
2022/01/30 11:42:44;;;;;;;1999.90;999.90;;;;;;;4.97;76.31;163722.22;5021311;28;20139;-68
2022/01/30 11:45:13;;;;;;;1999.90;999.90;;;;;;;5.07;76.21;163748.31;5017018;28;20046;-68
2022/01/30 11:48:10;;;;;;;1999.90;999.90;;;;;;;4.86;76.44;163693.41;5013689;28;20049;-68
2022/01/30 11:50:37;;;;;;;1999.90;999.90;;;;;;;5.05;75.94;163744.19;5025261;28;20088;-68
2022/01/30 11:53:04;;;;;;;1999.90;999.90;;;;;;;4.83;76.72;163683.84;5022709;28;20074;-68
2022/01/30 11:55:37;;;;;;;1999.90;999.90;;;;;;;4.74;77.38;163660.50;5016411;28;20057;-68
2022/01/30 11:58:03;;;;;;;1999.90;999.90;;;;;;;4.87;76.94;163696.19;5019855;28;20046;-68